sensor_id;sensor_type;location;lat;lon;timestamp;P1;durP1;ratioP1;P2;durP2;ratioP2
34212;SDS011;20477;51.390;8.102;2024-03-22T00:01:30;60.15;;;37.33;;
34212;SDS011;20477;51.390;8.102;2024-03-22T00:03:56;54.25;;;34.05;;
34212;SDS011;20477;51.390;8.102;2024-03-22T00:06:23;53.25;;;34.30;;
34212;SDS011;20477;51.390;8.102;2024-03-22T00:08:49;64.28;;;37.05;;
34212;SDS011;20477;51.390;8.102;2024-03-22T00:11:15;58.35;;;36.05;;
34212;SDS011;20477;51.390;8.102;2024-03-22T00:13:41;61.47;;;38.22;;
34212;SDS011;20477;51.390;8.102;2024-03-22T00:16:08;58.85;;;37.20;;
34212;SDS011;20477;51.390;8.102;2024-03-22T00:18:36;59.17;;;36.70;;
34212;SDS011;20477;51.390;8.102;2024-03-22T00:21:03;58.65;;;33.95;;
34212;SDS011;20477;51.390;8.102;2024-03-22T00:23:29;67.90;;;39.83;;
34212;SDS011;20477;51.390;8.102;2024-03-22T00:25:56;61.83;;;38.08;;
34212;SDS011;20477;51.390;8.102;2024-03-22T00:28:22;67.53;;;39.80;;
34212;SDS011;20477;51.390;8.102;2024-03-22T00:30:48;67.03;;;40.45;;
34212;SDS011;20477;51.390;8.102;2024-03-22T00:33:18;56.47;;;37.28;;
34212;SDS011;20477;51.390;8.102;2024-03-22T00:35:46;56.72;;;37.03;;
34212;SDS011;20477;51.390;8.102;2024-03-22T00:38:12;61.60;;;36.47;;
34212;SDS011;20477;51.390;8.102;2024-03-22T00:40:38;61.35;;;37.92;;
34212;SDS011;20477;51.390;8.102;2024-03-22T00:43:25;50.63;;;33.08;;
34212;SDS011;20477;51.390;8.102;2024-03-22T00:48:56;82.93;;;44.60;;
34212;SDS011;20477;51.390;8.102;2024-03-22T00:54:23;66.75;;;40.00;;
34212;SDS011;20477;51.390;8.102;2024-03-22T00:56:49;61.80;;;37.65;;
34212;SDS011;20477;51.390;8.102;2024-03-22T00:59:15;62.00;;;34.75;;
34212;SDS011;20477;51.390;8.102;2024-03-22T01:01:42;56.90;;;36.92;;
34212;SDS011;20477;51.390;8.102;2024-03-22T01:04:08;59.92;;;35.15;;
34212;SDS011;20477;51.390;8.102;2024-03-22T01:06:34;60.95;;;36.70;;
34212;SDS011;20477;51.390;8.102;2024-03-22T01:09:04;62.50;;;36.25;;
34212;SDS011;20477;51.390;8.102;2024-03-22T01:11:32;59.50;;;35.70;;
34212;SDS011;20477;51.390;8.102;2024-03-22T01:13:58;56.33;;;33.38;;
34212;SDS011;20477;51.390;8.102;2024-03-22T01:16:24;62.78;;;38.08;;
34212;SDS011;20477;51.390;8.102;2024-03-22T01:18:51;60.97;;;34.75;;
34212;SDS011;20477;51.390;8.102;2024-03-22T01:21:18;62.70;;;36.05;;
34212;SDS011;20477;51.390;8.102;2024-03-22T01:23:44;55.55;;;33.30;;
34212;SDS011;20477;51.390;8.102;2024-03-22T01:26:10;69.00;;;36.97;;
34212;SDS011;20477;51.390;8.102;2024-03-22T01:28:38;62.65;;;36.15;;
34212;SDS011;20477;51.390;8.102;2024-03-22T01:31:05;64.22;;;35.17;;
34212;SDS011;20477;51.390;8.102;2024-03-22T01:33:31;59.47;;;35.40;;
34212;SDS011;20477;51.390;8.102;2024-03-22T01:35:58;62.00;;;34.95;;
34212;SDS011;20477;51.390;8.102;2024-03-22T01:38:24;68.28;;;37.50;;
34212;SDS011;20477;51.390;8.102;2024-03-22T01:40:50;60.20;;;34.45;;
34212;SDS011;20477;51.390;8.102;2024-03-22T01:43:16;61.92;;;34.40;;
34212;SDS011;20477;51.390;8.102;2024-03-22T01:45:45;62.00;;;35.90;;
34212;SDS011;20477;51.390;8.102;2024-03-22T01:48:11;62.03;;;35.30;;
34212;SDS011;20477;51.390;8.102;2024-03-22T01:50:37;58.45;;;33.50;;
34212;SDS011;20477;51.390;8.102;2024-03-22T01:53:04;58.03;;;35.33;;
34212;SDS011;20477;51.390;8.102;2024-03-22T01:55:30;54.63;;;33.60;;
34212;SDS011;20477;51.390;8.102;2024-03-22T01:57:57;57.75;;;33.53;;
34212;SDS011;20477;51.390;8.102;2024-03-22T02:00:24;58.03;;;33.28;;
34212;SDS011;20477;51.390;8.102;2024-03-22T02:02:52;57.53;;;33.28;;
34212;SDS011;20477;51.390;8.102;2024-03-22T02:05:19;55.60;;;32.15;;
34212;SDS011;20477;51.390;8.102;2024-03-22T02:07:45;60.20;;;31.13;;
34212;SDS011;20477;51.390;8.102;2024-03-22T02:10:29;56.08;;;31.30;;
34212;SDS011;20477;51.390;8.102;2024-03-22T02:13:04;56.70;;;31.23;;
34212;SDS011;20477;51.390;8.102;2024-03-22T02:15:31;49.90;;;28.98;;
34212;SDS011;20477;51.390;8.102;2024-03-22T02:18:02;51.25;;;29.38;;
34212;SDS011;20477;51.390;8.102;2024-03-22T02:20:29;50.33;;;29.75;;
34212;SDS011;20477;51.390;8.102;2024-03-22T02:22:55;52.85;;;30.52;;
34212;SDS011;20477;51.390;8.102;2024-03-22T02:25:23;46.20;;;29.23;;
34212;SDS011;20477;51.390;8.102;2024-03-22T02:28:09;53.22;;;30.08;;
34212;SDS011;20477;51.390;8.102;2024-03-22T02:33:50;54.55;;;31.60;;
34212;SDS011;20477;51.390;8.102;2024-03-22T02:36:30;47.78;;;30.38;;
34212;SDS011;20477;51.390;8.102;2024-03-22T02:38:59;56.92;;;31.95;;
34212;SDS011;20477;51.390;8.102;2024-03-22T02:41:27;52.15;;;31.38;;
34212;SDS011;20477;51.390;8.102;2024-03-22T02:43:54;55.38;;;31.20;;
34212;SDS011;20477;51.390;8.102;2024-03-22T02:46:20;51.63;;;30.63;;
34212;SDS011;20477;51.390;8.102;2024-03-22T02:48:47;52.50;;;29.30;;
34212;SDS011;20477;51.390;8.102;2024-03-22T02:51:13;54.13;;;31.27;;
34212;SDS011;20477;51.390;8.102;2024-03-22T02:53:40;47.00;;;30.85;;
34212;SDS011;20477;51.390;8.102;2024-03-22T02:56:06;50.15;;;30.48;;
34212;SDS011;20477;51.390;8.102;2024-03-22T02:58:34;54.28;;;28.50;;
34212;SDS011;20477;51.390;8.102;2024-03-22T03:01:00;53.80;;;28.95;;
34212;SDS011;20477;51.390;8.102;2024-03-22T03:03:26;51.40;;;29.65;;
34212;SDS011;20477;51.390;8.102;2024-03-22T03:05:53;50.83;;;30.52;;
34212;SDS011;20477;51.390;8.102;2024-03-22T03:08:19;51.40;;;29.40;;
34212;SDS011;20477;51.390;8.102;2024-03-22T03:10:46;50.75;;;28.90;;
34212;SDS011;20477;51.390;8.102;2024-03-22T03:13:12;51.28;;;29.48;;
34212;SDS011;20477;51.390;8.102;2024-03-22T03:15:40;47.85;;;26.95;;
34212;SDS011;20477;51.390;8.102;2024-03-22T03:18:06;46.33;;;25.65;;
34212;SDS011;20477;51.390;8.102;2024-03-22T03:20:33;43.75;;;24.50;;
34212;SDS011;20477;51.390;8.102;2024-03-22T03:22:59;42.58;;;25.55;;
34212;SDS011;20477;51.390;8.102;2024-03-22T03:25:26;45.90;;;24.33;;
34212;SDS011;20477;51.390;8.102;2024-03-22T03:27:52;43.03;;;24.92;;
34212;SDS011;20477;51.390;8.102;2024-03-22T03:30:18;44.33;;;25.83;;
34212;SDS011;20477;51.390;8.102;2024-03-22T03:32:47;44.58;;;25.38;;
34212;SDS011;20477;51.390;8.102;2024-03-22T03:35:13;46.05;;;25.13;;
34212;SDS011;20477;51.390;8.102;2024-03-22T03:37:39;44.78;;;26.10;;
34212;SDS011;20477;51.390;8.102;2024-03-22T03:40:06;43.05;;;23.48;;
34212;SDS011;20477;51.390;8.102;2024-03-22T03:42:33;45.83;;;24.80;;
34212;SDS011;20477;51.390;8.102;2024-03-22T03:44:59;44.97;;;24.13;;
34212;SDS011;20477;51.390;8.102;2024-03-22T03:47:25;40.45;;;23.92;;
34212;SDS011;20477;51.390;8.102;2024-03-22T03:49:53;50.30;;;27.35;;
34212;SDS011;20477;51.390;8.102;2024-03-22T03:52:20;49.35;;;24.08;;
34212;SDS011;20477;51.390;8.102;2024-03-22T03:54:46;47.53;;;24.02;;
34212;SDS011;20477;51.390;8.102;2024-03-22T03:57:12;49.30;;;25.05;;
34212;SDS011;20477;51.390;8.102;2024-03-22T03:59:39;43.85;;;24.10;;
34212;SDS011;20477;51.390;8.102;2024-03-22T04:02:05;44.25;;;24.08;;
34212;SDS011;20477;51.390;8.102;2024-03-22T04:04:31;44.88;;;25.83;;
34212;SDS011;20477;51.390;8.102;2024-03-22T04:06:59;41.85;;;23.25;;
34212;SDS011;20477;51.390;8.102;2024-03-22T04:09:25;47.60;;;24.92;;
34212;SDS011;20477;51.390;8.102;2024-03-22T04:11:51;40.10;;;23.25;;
34212;SDS011;20477;51.390;8.102;2024-03-22T04:14:18;43.72;;;22.73;;
34212;SDS011;20477;51.390;8.102;2024-03-22T04:16:44;51.40;;;25.75;;
34212;SDS011;20477;51.390;8.102;2024-03-22T04:19:10;43.53;;;24.55;;
34212;SDS011;20477;51.390;8.102;2024-03-22T04:21:37;52.03;;;26.65;;
34212;SDS011;20477;51.390;8.102;2024-03-22T04:24:05;41.30;;;23.80;;
34212;SDS011;20477;51.390;8.102;2024-03-22T04:26:31;49.97;;;26.92;;
34212;SDS011;20477;51.390;8.102;2024-03-22T04:28:58;46.42;;;24.73;;
34212;SDS011;20477;51.390;8.102;2024-03-22T04:31:24;43.92;;;24.23;;
34212;SDS011;20477;51.390;8.102;2024-03-22T04:33:50;46.17;;;25.35;;
34212;SDS011;20477;51.390;8.102;2024-03-22T04:36:17;45.08;;;25.10;;
34212;SDS011;20477;51.390;8.102;2024-03-22T04:38:43;48.92;;;25.45;;
34212;SDS011;20477;51.390;8.102;2024-03-22T04:41:11;44.20;;;27.10;;
34212;SDS011;20477;51.390;8.102;2024-03-22T04:43:37;44.13;;;25.25;;
34212;SDS011;20477;51.390;8.102;2024-03-22T04:46:03;46.63;;;27.65;;
34212;SDS011;20477;51.390;8.102;2024-03-22T04:48:30;45.00;;;26.83;;
34212;SDS011;20477;51.390;8.102;2024-03-22T04:50:56;43.35;;;26.40;;
34212;SDS011;20477;51.390;8.102;2024-03-22T04:53:23;51.40;;;26.75;;
34212;SDS011;20477;51.390;8.102;2024-03-22T04:55:49;46.15;;;25.60;;
34212;SDS011;20477;51.390;8.102;2024-03-22T04:58:17;48.60;;;25.98;;
34212;SDS011;20477;51.390;8.102;2024-03-22T05:00:44;47.03;;;27.10;;
34212;SDS011;20477;51.390;8.102;2024-03-22T05:03:11;48.70;;;27.35;;
34212;SDS011;20477;51.390;8.102;2024-03-22T05:05:46;45.30;;;26.90;;
34212;SDS011;20477;51.390;8.102;2024-03-22T05:08:15;46.92;;;26.17;;
34212;SDS011;20477;51.390;8.102;2024-03-22T05:11:11;45.88;;;26.92;;
34212;SDS011;20477;51.390;8.102;2024-03-22T05:22:10;44.38;;;25.98;;
34212;SDS011;20477;51.390;8.102;2024-03-22T05:24:36;51.58;;;27.27;;
34212;SDS011;20477;51.390;8.102;2024-03-22T05:27:03;42.63;;;25.25;;
34212;SDS011;20477;51.390;8.102;2024-03-22T05:29:29;57.33;;;27.20;;
34212;SDS011;20477;51.390;8.102;2024-03-22T05:31:55;52.10;;;26.27;;
34212;SDS011;20477;51.390;8.102;2024-03-22T05:34:22;50.15;;;26.42;;
34212;SDS011;20477;51.390;8.102;2024-03-22T05:36:48;46.50;;;25.40;;
34212;SDS011;20477;51.390;8.102;2024-03-22T05:39:16;46.38;;;26.05;;
34212;SDS011;20477;51.390;8.102;2024-03-22T05:41:42;44.92;;;24.70;;
34212;SDS011;20477;51.390;8.102;2024-03-22T05:44:09;45.10;;;25.02;;
34212;SDS011;20477;51.390;8.102;2024-03-22T05:46:35;43.40;;;25.15;;
34212;SDS011;20477;51.390;8.102;2024-03-22T05:49:03;45.35;;;25.33;;
34212;SDS011;20477;51.390;8.102;2024-03-22T05:51:29;41.25;;;23.73;;
34212;SDS011;20477;51.390;8.102;2024-03-22T05:53:56;42.70;;;24.23;;
34212;SDS011;20477;51.390;8.102;2024-03-22T05:56:24;48.30;;;22.85;;
34212;SDS011;20477;51.390;8.102;2024-03-22T05:58:51;34.63;;;23.20;;
34212;SDS011;20477;51.390;8.102;2024-03-22T06:01:17;41.47;;;22.33;;
34212;SDS011;20477;51.390;8.102;2024-03-22T06:03:43;34.67;;;22.30;;
34212;SDS011;20477;51.390;8.102;2024-03-22T06:06:10;41.78;;;23.23;;
34212;SDS011;20477;51.390;8.102;2024-03-22T06:08:36;35.80;;;22.10;;
34212;SDS011;20477;51.390;8.102;2024-03-22T06:11:02;38.92;;;21.80;;
34212;SDS011;20477;51.390;8.102;2024-03-22T06:13:31;38.10;;;22.48;;
34212;SDS011;20477;51.390;8.102;2024-03-22T06:15:57;38.75;;;21.35;;
34212;SDS011;20477;51.390;8.102;2024-03-22T06:18:23;39.63;;;21.88;;
34212;SDS011;20477;51.390;8.102;2024-03-22T06:20:50;37.80;;;21.55;;
34212;SDS011;20477;51.390;8.102;2024-03-22T06:23:16;39.97;;;20.98;;
34212;SDS011;20477;51.390;8.102;2024-03-22T06:25:50;38.63;;;20.40;;
34212;SDS011;20477;51.390;8.102;2024-03-22T06:28:17;34.72;;;20.20;;
34212;SDS011;20477;51.390;8.102;2024-03-22T06:30:44;36.35;;;19.00;;
34212;SDS011;20477;51.390;8.102;2024-03-22T06:33:11;32.30;;;18.88;;
34212;SDS011;20477;51.390;8.102;2024-03-22T06:35:37;32.58;;;19.15;;
34212;SDS011;20477;51.390;8.102;2024-03-22T06:38:03;30.85;;;18.42;;
34212;SDS011;20477;51.390;8.102;2024-03-22T06:40:30;34.58;;;18.08;;
34212;SDS011;20477;51.390;8.102;2024-03-22T06:42:56;27.02;;;16.98;;
34212;SDS011;20477;51.390;8.102;2024-03-22T06:45:23;26.63;;;17.08;;
34212;SDS011;20477;51.390;8.102;2024-03-22T06:47:51;31.35;;;17.15;;
34212;SDS011;20477;51.390;8.102;2024-03-22T06:50:20;28.63;;;16.80;;
34212;SDS011;20477;51.390;8.102;2024-03-22T06:52:46;25.05;;;14.75;;
34212;SDS011;20477;51.390;8.102;2024-03-22T06:55:12;30.17;;;16.58;;
34212;SDS011;20477;51.390;8.102;2024-03-22T06:57:38;28.30;;;17.38;;
34212;SDS011;20477;51.390;8.102;2024-03-22T07:00:05;25.08;;;16.48;;
34212;SDS011;20477;51.390;8.102;2024-03-22T07:02:32;30.98;;;17.73;;
34212;SDS011;20477;51.390;8.102;2024-03-22T07:05:00;30.88;;;17.10;;
34212;SDS011;20477;51.390;8.102;2024-03-22T07:07:26;30.58;;;17.30;;
34212;SDS011;20477;51.390;8.102;2024-03-22T07:09:52;31.30;;;18.65;;
34212;SDS011;20477;51.390;8.102;2024-03-22T07:12:18;31.10;;;19.05;;
34212;SDS011;20477;51.390;8.102;2024-03-22T07:14:45;37.00;;;20.60;;
34212;SDS011;20477;51.390;8.102;2024-03-22T07:17:11;37.72;;;21.50;;
34212;SDS011;20477;51.390;8.102;2024-03-22T07:19:38;36.92;;;22.33;;
34212;SDS011;20477;51.390;8.102;2024-03-22T07:22:05;37.20;;;22.75;;
34212;SDS011;20477;51.390;8.102;2024-03-22T07:24:32;41.30;;;23.33;;
34212;SDS011;20477;51.390;8.102;2024-03-22T07:26:58;47.25;;;24.65;;
34212;SDS011;20477;51.390;8.102;2024-03-22T07:29:24;37.30;;;23.67;;
34212;SDS011;20477;51.390;8.102;2024-03-22T07:31:51;39.22;;;26.10;;
34212;SDS011;20477;51.390;8.102;2024-03-22T07:34:17;41.75;;;25.17;;
34212;SDS011;20477;51.390;8.102;2024-03-22T07:36:44;39.22;;;24.13;;
34212;SDS011;20477;51.390;8.102;2024-03-22T07:39:12;43.75;;;27.77;;
34212;SDS011;20477;51.390;8.102;2024-03-22T07:41:38;41.50;;;26.40;;
34212;SDS011;20477;51.390;8.102;2024-03-22T07:44:05;48.97;;;29.13;;
34212;SDS011;20477;51.390;8.102;2024-03-22T07:46:31;42.78;;;27.35;;
34212;SDS011;20477;51.390;8.102;2024-03-22T07:48:57;47.72;;;26.75;;
34212;SDS011;20477;51.390;8.102;2024-03-22T07:51:23;36.95;;;25.80;;
34212;SDS011;20477;51.390;8.102;2024-03-22T07:53:51;42.47;;;27.67;;
34212;SDS011;20477;51.390;8.102;2024-03-22T07:56:19;43.13;;;26.38;;
34212;SDS011;20477;51.390;8.102;2024-03-22T07:58:45;40.78;;;26.13;;
34212;SDS011;20477;51.390;8.102;2024-03-22T08:01:12;43.55;;;25.73;;
34212;SDS011;20477;51.390;8.102;2024-03-22T08:03:38;34.70;;;22.27;;
34212;SDS011;20477;51.390;8.102;2024-03-22T08:06:05;35.40;;;22.50;;
34212;SDS011;20477;51.390;8.102;2024-03-22T08:08:31;40.92;;;23.80;;
34212;SDS011;20477;51.390;8.102;2024-03-22T08:10:57;37.10;;;23.40;;
34212;SDS011;20477;51.390;8.102;2024-03-22T08:13:25;43.17;;;24.83;;
34212;SDS011;20477;51.390;8.102;2024-03-22T08:15:51;34.20;;;20.98;;
34212;SDS011;20477;51.390;8.102;2024-03-22T08:18:18;33.88;;;20.98;;
34212;SDS011;20477;51.390;8.102;2024-03-22T08:20:44;36.33;;;20.13;;
34212;SDS011;20477;51.390;8.102;2024-03-22T08:23:11;30.73;;;20.17;;
34212;SDS011;20477;51.390;8.102;2024-03-22T08:25:37;34.50;;;20.77;;
34212;SDS011;20477;51.390;8.102;2024-03-22T08:28:05;35.90;;;21.40;;
34212;SDS011;20477;51.390;8.102;2024-03-22T08:30:36;29.85;;;18.35;;
34212;SDS011;20477;51.390;8.102;2024-03-22T08:33:03;28.90;;;19.40;;
34212;SDS011;20477;51.390;8.102;2024-03-22T08:35:29;34.20;;;19.38;;
34212;SDS011;20477;51.390;8.102;2024-03-22T08:37:56;28.08;;;19.10;;
34212;SDS011;20477;51.390;8.102;2024-03-22T08:40:23;31.85;;;18.10;;
34212;SDS011;20477;51.390;8.102;2024-03-22T08:42:49;30.08;;;18.65;;
34212;SDS011;20477;51.390;8.102;2024-03-22T08:45:15;32.85;;;20.25;;
34212;SDS011;20477;51.390;8.102;2024-03-22T08:47:43;34.83;;;21.17;;
34212;SDS011;20477;51.390;8.102;2024-03-22T08:50:10;31.42;;;19.83;;
34212;SDS011;20477;51.390;8.102;2024-03-22T08:52:36;28.60;;;19.67;;
34212;SDS011;20477;51.390;8.102;2024-03-22T08:55:02;28.48;;;19.25;;
34212;SDS011;20477;51.390;8.102;2024-03-22T08:57:29;30.98;;;18.23;;
34212;SDS011;20477;51.390;8.102;2024-03-22T08:59:55;30.50;;;18.20;;
34212;SDS011;20477;51.390;8.102;2024-03-22T09:02:21;31.70;;;17.35;;
34212;SDS011;20477;51.390;8.102;2024-03-22T09:04:52;26.77;;;17.10;;
34212;SDS011;20477;51.390;8.102;2024-03-22T09:07:18;25.48;;;15.85;;
34212;SDS011;20477;51.390;8.102;2024-03-22T09:09:44;29.23;;;17.75;;
34212;SDS011;20477;51.390;8.102;2024-03-22T09:12:11;24.60;;;17.35;;
34212;SDS011;20477;51.390;8.102;2024-03-22T09:14:37;25.58;;;16.42;;
34212;SDS011;20477;51.390;8.102;2024-03-22T09:17:03;26.02;;;15.98;;
34212;SDS011;20477;51.390;8.102;2024-03-22T09:19:30;21.23;;;14.65;;
34212;SDS011;20477;51.390;8.102;2024-03-22T09:21:58;23.38;;;15.05;;
34212;SDS011;20477;51.390;8.102;2024-03-22T09:24:24;23.75;;;16.10;;
34212;SDS011;20477;51.390;8.102;2024-03-22T09:26:51;20.40;;;13.65;;
34212;SDS011;20477;51.390;8.102;2024-03-22T09:29:17;24.02;;;14.50;;
34212;SDS011;20477;51.390;8.102;2024-03-22T09:31:43;22.90;;;14.43;;
34212;SDS011;20477;51.390;8.102;2024-03-22T09:34:11;21.48;;;13.85;;
34212;SDS011;20477;51.390;8.102;2024-03-22T09:36:38;21.67;;;13.45;;
34212;SDS011;20477;51.390;8.102;2024-03-22T09:39:06;24.35;;;12.98;;
34212;SDS011;20477;51.390;8.102;2024-03-22T09:41:33;23.73;;;13.90;;
34212;SDS011;20477;51.390;8.102;2024-03-22T09:44:00;24.13;;;12.88;;
34212;SDS011;20477;51.390;8.102;2024-03-22T09:46:29;20.52;;;12.38;;
34212;SDS011;20477;51.390;8.102;2024-03-22T09:48:55;16.15;;;9.70;;
34212;SDS011;20477;51.390;8.102;2024-03-22T09:51:23;19.50;;;10.93;;
34212;SDS011;20477;51.390;8.102;2024-03-22T09:53:50;22.40;;;11.50;;
34212;SDS011;20477;51.390;8.102;2024-03-22T09:56:20;18.98;;;12.05;;
34212;SDS011;20477;51.390;8.102;2024-03-22T09:58:46;15.20;;;10.98;;
34212;SDS011;20477;51.390;8.102;2024-03-22T10:01:13;18.25;;;11.20;;
34212;SDS011;20477;51.390;8.102;2024-03-22T10:03:39;16.77;;;10.98;;
34212;SDS011;20477;51.390;8.102;2024-03-22T10:06:06;20.25;;;11.45;;
34212;SDS011;20477;51.390;8.102;2024-03-22T10:08:33;16.83;;;11.40;;
34212;SDS011;20477;51.390;8.102;2024-03-22T10:11:01;16.88;;;10.50;;
34212;SDS011;20477;51.390;8.102;2024-03-22T10:13:29;14.30;;;10.30;;
34212;SDS011;20477;51.390;8.102;2024-03-22T10:15:56;17.02;;;10.98;;
34212;SDS011;20477;51.390;8.102;2024-03-22T10:18:22;15.27;;;10.82;;
34212;SDS011;20477;51.390;8.102;2024-03-22T10:20:58;15.10;;;11.25;;
34212;SDS011;20477;51.390;8.102;2024-03-22T10:23:25;16.33;;;10.90;;
34212;SDS011;20477;51.390;8.102;2024-03-22T10:25:51;14.10;;;9.60;;
34212;SDS011;20477;51.390;8.102;2024-03-22T10:28:17;20.77;;;10.63;;
34212;SDS011;20477;51.390;8.102;2024-03-22T10:30:45;18.10;;;10.23;;
34212;SDS011;20477;51.390;8.102;2024-03-22T10:33:13;20.80;;;9.52;;
34212;SDS011;20477;51.390;8.102;2024-03-22T10:35:39;16.75;;;10.38;;
34212;SDS011;20477;51.390;8.102;2024-03-22T10:38:06;14.57;;;10.85;;
34212;SDS011;20477;51.390;8.102;2024-03-22T10:40:33;22.00;;;10.38;;
34212;SDS011;20477;51.390;8.102;2024-03-22T10:43:01;20.08;;;10.57;;
34212;SDS011;20477;51.390;8.102;2024-03-22T10:45:28;16.92;;;9.52;;
34212;SDS011;20477;51.390;8.102;2024-03-22T10:47:57;15.50;;;9.27;;
34212;SDS011;20477;51.390;8.102;2024-03-22T10:50:23;17.70;;;10.70;;
34212;SDS011;20477;51.390;8.102;2024-03-22T10:52:50;12.40;;;8.90;;
34212;SDS011;20477;51.390;8.102;2024-03-22T10:55:19;14.32;;;8.98;;
34212;SDS011;20477;51.390;8.102;2024-03-22T10:57:46;17.55;;;9.85;;
34212;SDS011;20477;51.390;8.102;2024-03-22T11:00:13;13.63;;;8.43;;
34212;SDS011;20477;51.390;8.102;2024-03-22T11:02:39;18.30;;;9.38;;
34212;SDS011;20477;51.390;8.102;2024-03-22T11:05:20;16.65;;;8.95;;
34212;SDS011;20477;51.390;8.102;2024-03-22T11:07:46;15.15;;;7.45;;
34212;SDS011;20477;51.390;8.102;2024-03-22T11:10:13;16.65;;;8.68;;
34212;SDS011;20477;51.390;8.102;2024-03-22T11:12:39;14.05;;;9.07;;
34212;SDS011;20477;51.390;8.102;2024-03-22T11:15:06;13.98;;;8.43;;
34212;SDS011;20477;51.390;8.102;2024-03-22T11:17:32;12.10;;;8.05;;
34212;SDS011;20477;51.390;8.102;2024-03-22T11:19:59;16.83;;;8.20;;
34212;SDS011;20477;51.390;8.102;2024-03-22T11:22:26;11.65;;;7.88;;
34212;SDS011;20477;51.390;8.102;2024-03-22T11:24:53;16.02;;;7.97;;
34212;SDS011;20477;51.390;8.102;2024-03-22T11:27:19;12.52;;;7.25;;
34212;SDS011;20477;51.390;8.102;2024-03-22T11:29:46;12.00;;;7.28;;
34212;SDS011;20477;51.390;8.102;2024-03-22T11:32:15;16.50;;;7.20;;
34212;SDS011;20477;51.390;8.102;2024-03-22T11:34:41;10.85;;;6.80;;
34212;SDS011;20477;51.390;8.102;2024-03-22T11:37:08;12.07;;;6.85;;
34212;SDS011;20477;51.390;8.102;2024-03-22T11:39:36;11.40;;;6.93;;
34212;SDS011;20477;51.390;8.102;2024-03-22T11:42:03;11.68;;;6.68;;
34212;SDS011;20477;51.390;8.102;2024-03-22T11:44:30;13.88;;;6.20;;
34212;SDS011;20477;51.390;8.102;2024-03-22T11:46:57;11.77;;;5.53;;
34212;SDS011;20477;51.390;8.102;2024-03-22T11:49:24;8.73;;;5.15;;
34212;SDS011;20477;51.390;8.102;2024-03-22T11:51:51;11.85;;;4.85;;
34212;SDS011;20477;51.390;8.102;2024-03-22T11:54:18;9.43;;;5.10;;
34212;SDS011;20477;51.390;8.102;2024-03-22T11:56:46;8.13;;;5.47;;
34212;SDS011;20477;51.390;8.102;2024-03-22T11:59:13;9.10;;;4.78;;
34212;SDS011;20477;51.390;8.102;2024-03-22T12:01:40;8.55;;;5.00;;
34212;SDS011;20477;51.390;8.102;2024-03-22T12:04:06;12.43;;;4.88;;
34212;SDS011;20477;51.390;8.102;2024-03-22T12:06:33;7.47;;;4.18;;
34212;SDS011;20477;51.390;8.102;2024-03-22T12:09:00;8.10;;;4.32;;
34212;SDS011;20477;51.390;8.102;2024-03-22T12:11:26;15.30;;;5.10;;
34212;SDS011;20477;51.390;8.102;2024-03-22T12:13:54;7.45;;;4.70;;
34212;SDS011;20477;51.390;8.102;2024-03-22T12:16:20;7.28;;;4.38;;
34212;SDS011;20477;51.390;8.102;2024-03-22T12:18:47;10.63;;;4.70;;
34212;SDS011;20477;51.390;8.102;2024-03-22T12:21:13;8.50;;;4.80;;
34212;SDS011;20477;51.390;8.102;2024-03-22T12:23:39;5.95;;;4.30;;
34212;SDS011;20477;51.390;8.102;2024-03-22T12:26:05;6.15;;;4.35;;
34212;SDS011;20477;51.390;8.102;2024-03-22T12:28:32;8.65;;;4.70;;
34212;SDS011;20477;51.390;8.102;2024-03-22T12:31:00;11.02;;;4.68;;
34212;SDS011;20477;51.390;8.102;2024-03-22T12:33:26;7.30;;;5.28;;
34212;SDS011;20477;51.390;8.102;2024-03-22T12:35:53;7.97;;;4.65;;
34212;SDS011;20477;51.390;8.102;2024-03-22T12:38:19;9.25;;;4.68;;
34212;SDS011;20477;51.390;8.102;2024-03-22T12:40:45;7.88;;;4.68;;
34212;SDS011;20477;51.390;8.102;2024-03-22T12:43:12;9.52;;;5.28;;
34212;SDS011;20477;51.390;8.102;2024-03-22T12:45:38;9.50;;;5.80;;
34212;SDS011;20477;51.390;8.102;2024-03-22T12:48:07;7.63;;;5.28;;
34212;SDS011;20477;51.390;8.102;2024-03-22T12:50:33;8.80;;;4.55;;
34212;SDS011;20477;51.390;8.102;2024-03-22T12:53:00;7.50;;;4.22;;
34212;SDS011;20477;51.390;8.102;2024-03-22T12:55:26;9.90;;;5.22;;
34212;SDS011;20477;51.390;8.102;2024-03-22T12:57:53;8.27;;;4.45;;
34212;SDS011;20477;51.390;8.102;2024-03-22T13:00:20;7.07;;;4.45;;
34212;SDS011;20477;51.390;8.102;2024-03-22T13:02:47;6.75;;;4.45;;
34212;SDS011;20477;51.390;8.102;2024-03-22T13:05:15;9.95;;;4.45;;
34212;SDS011;20477;51.390;8.102;2024-03-22T13:07:41;7.15;;;4.68;;
34212;SDS011;20477;51.390;8.102;2024-03-22T13:10:08;9.02;;;5.20;;
34212;SDS011;20477;51.390;8.102;2024-03-22T13:12:34;5.57;;;3.75;;
34212;SDS011;20477;51.390;8.102;2024-03-22T13:15:01;10.10;;;5.43;;
34212;SDS011;20477;51.390;8.102;2024-03-22T13:17:27;10.95;;;4.75;;
34212;SDS011;20477;51.390;8.102;2024-03-22T13:19:53;8.63;;;4.90;;
34212;SDS011;20477;51.390;8.102;2024-03-22T13:22:21;10.93;;;5.72;;
34212;SDS011;20477;51.390;8.102;2024-03-22T13:24:48;9.82;;;5.28;;
34212;SDS011;20477;51.390;8.102;2024-03-22T13:27:14;7.15;;;5.20;;
34212;SDS011;20477;51.390;8.102;2024-03-22T13:29:40;7.70;;;5.25;;
34212;SDS011;20477;51.390;8.102;2024-03-22T13:32:07;9.70;;;5.60;;
34212;SDS011;20477;51.390;8.102;2024-03-22T13:34:34;9.65;;;4.97;;
34212;SDS011;20477;51.390;8.102;2024-03-22T13:37:00;11.38;;;5.25;;
34212;SDS011;20477;51.390;8.102;2024-03-22T13:39:28;9.15;;;5.65;;
34212;SDS011;20477;51.390;8.102;2024-03-22T13:41:54;13.63;;;5.97;;
34212;SDS011;20477;51.390;8.102;2024-03-22T13:44:22;9.27;;;6.25;;
34212;SDS011;20477;51.390;8.102;2024-03-22T13:46:49;10.27;;;6.35;;
34212;SDS011;20477;51.390;8.102;2024-03-22T13:49:16;10.32;;;6.63;;
34212;SDS011;20477;51.390;8.102;2024-03-22T13:51:43;10.90;;;6.63;;
34212;SDS011;20477;51.390;8.102;2024-03-22T13:54:11;14.27;;;7.15;;
34212;SDS011;20477;51.390;8.102;2024-03-22T13:56:39;8.48;;;6.18;;
34212;SDS011;20477;51.390;8.102;2024-03-22T13:59:05;10.30;;;6.80;;
34212;SDS011;20477;51.390;8.102;2024-03-22T14:01:31;12.77;;;7.50;;
34212;SDS011;20477;51.390;8.102;2024-03-22T14:03:58;10.20;;;6.82;;
34212;SDS011;20477;51.390;8.102;2024-03-22T14:06:24;15.40;;;7.43;;
34212;SDS011;20477;51.390;8.102;2024-03-22T14:08:50;14.90;;;6.95;;
34212;SDS011;20477;51.390;8.102;2024-03-22T14:11:17;15.23;;;7.88;;
34212;SDS011;20477;51.390;8.102;2024-03-22T14:13:44;9.38;;;6.85;;
34212;SDS011;20477;51.390;8.102;2024-03-22T14:16:11;11.13;;;7.15;;
34212;SDS011;20477;51.390;8.102;2024-03-22T14:18:37;12.20;;;6.90;;
34212;SDS011;20477;51.390;8.102;2024-03-22T14:21:03;12.13;;;7.00;;
34212;SDS011;20477;51.390;8.102;2024-03-22T14:23:30;11.10;;;7.57;;
34212;SDS011;20477;51.390;8.102;2024-03-22T14:25:56;14.90;;;8.60;;
34212;SDS011;20477;51.390;8.102;2024-03-22T14:28:22;12.90;;;8.10;;
34212;SDS011;20477;51.390;8.102;2024-03-22T14:30:50;13.93;;;8.13;;
34212;SDS011;20477;51.390;8.102;2024-03-22T14:33:17;9.40;;;6.35;;
34212;SDS011;20477;51.390;8.102;2024-03-22T14:35:43;13.05;;;7.35;;
34212;SDS011;20477;51.390;8.102;2024-03-22T14:38:09;14.88;;;6.63;;
34212;SDS011;20477;51.390;8.102;2024-03-22T14:40:36;11.27;;;6.65;;
34212;SDS011;20477;51.390;8.102;2024-03-22T14:43:02;11.43;;;6.60;;